Time;durP1;ratioP1;P1;durP2;ratioP2;P2;SDS_P1;SDS_P2;PMS_P1;PMS_P2;Temp;Humidity;BMP_temperature;BMP_pressure;BME280_temperature;BME280_humidity;BME280_pressure;Samples;Min_cycle;Max_cycle;Signal;HPM_P1;HPM_P2
2022/04/18 00:01:58;;;;;;;3.88;2.03;;;;;;;7.85;50.58;101816.00;5056968;28;20382;-77
2022/04/18 00:04:24;;;;;;;6.35;2.80;;;;;;;7.79;51.29;101825.84;5039550;28;20047;-76
2022/04/18 00:06:49;;;;;;;4.32;2.50;;;;;;;7.89;49.52;101826.00;5039867;28;20083;-77
2022/04/18 00:09:15;;;;;;;4.55;2.15;;;;;;;7.95;48.95;101829.91;5056891;28;20052;-77
2022/04/18 00:11:41;;;;;;;6.13;2.78;;;;;;;7.88;49.25;101819.19;5040364;28;20031;-77
2022/04/18 00:14:06;;;;;;;4.70;2.80;;;;;;;7.91;48.42;101811.22;5054627;28;20103;-76
2022/04/18 00:16:32;;;;;;;5.65;2.40;;;;;;;7.95;48.04;101812.63;5019616;28;20462;-77
2022/04/18 00:18:57;;;;;;;4.57;2.92;;;;;;;7.95;47.82;101816.97;5040309;28;20033;-77
2022/04/18 00:21:23;;;;;;;6.60;2.42;;;;;;;7.96;47.95;101813.44;5054053;28;20537;-77
2022/04/18 00:23:49;;;;;;;6.18;2.42;;;;;;;7.99;47.29;101819.22;5039476;28;20032;-77
2022/04/18 00:26:15;;;;;;;4.00;2.33;;;;;;;7.97;48.22;101817.69;5021693;28;20320;-77
2022/04/18 00:28:41;;;;;;;7.38;2.50;;;;;;;7.93;47.62;101809.34;5057035;28;20490;-77
2022/04/18 00:31:06;;;;;;;4.72;2.28;;;;;;;7.95;47.75;101811.81;5053968;28;20093;-77
2022/04/18 00:33:32;;;;;;;3.42;1.95;;;;;;;8.00;47.59;101807.09;5056180;28;20147;-76
2022/04/18 00:35:57;;;;;;;4.90;2.45;;;;;;;8.06;47.18;101809.25;5023023;28;20035;-77
2022/04/18 00:38:23;;;;;;;5.03;2.47;;;;;;;8.13;46.35;101810.41;5057194;28;20024;-77
2022/04/18 00:40:49;;;;;;;5.05;2.47;;;;;;;8.02;47.16;101812.16;5040295;28;20536;-77
2022/04/18 00:43:15;;;;;;;4.53;2.40;;;;;;;8.00;47.27;101807.09;5023414;28;20024;-77
2022/04/18 00:45:41;;;;;;;3.97;2.25;;;;;;;7.89;47.86;101804.50;5057671;28;20044;-76
2022/04/18 00:48:07;;;;;;;9.23;2.67;;;;;;;7.80;48.62;101801.69;5040083;28;20045;-77
2022/04/18 00:50:35;;;;;;;5.07;2.67;;;;;;;7.72;48.53;101796.25;5057402;28;20107;-77
2022/04/18 00:53:03;;;;;;;5.47;2.10;;;;;;;7.67;49.57;101798.34;5044515;28;20029;-77
2022/04/18 00:55:31;;;;;;;6.40;2.42;;;;;;;7.62;49.52;101797.03;5040700;28;20119;-76
2022/04/18 00:58:00;;;;;;;3.45;2.05;;;;;;;7.58;50.04;101793.84;5021149;28;20034;-77
2022/04/18 01:00:25;;;;;;;4.85;2.30;;;;;;;7.58;49.06;101799.03;5043228;28;20043;-77
2022/04/18 01:02:51;;;;;;;9.05;2.72;;;;;;;7.51;49.66;101790.88;5028112;28;20024;-77
2022/04/18 01:05:17;;;;;;;5.32;2.35;;;;;;;7.50;50.10;101797.00;5045062;28;20028;-77
2022/04/18 01:07:43;;;;;;;7.63;2.92;;;;;;;7.48;49.29;101791.13;5043436;28;20093;-77
2022/04/18 01:10:09;;;;;;;7.60;2.58;;;;;;;7.60;49.17;101792.78;5061532;28;20044;-77
2022/04/18 01:12:35;;;;;;;5.63;2.55;;;;;;;7.60;48.03;101781.66;5044243;28;20484;-77
2022/04/18 01:15:17;;;;;;;4.50;2.53;;;;;;;7.50;48.58;101789.25;5038527;28;20033;-76
2022/04/18 01:18:04;;;;;;;4.55;2.30;;;;;;;7.39;50.11;101784.88;5029119;28;20051;-77
2022/04/18 01:20:55;;;;;;;4.32;2.53;;;;;;;7.34;50.36;101792.09;5061000;28;20121;-77
2022/04/18 01:23:37;;;;;;;4.68;2.63;;;;;;;7.35;50.16;101798.13;5040448;28;20031;-77
2022/04/18 01:29:01;;;;;;;5.13;2.67;;;;;;;7.32;49.22;101783.66;5045493;28;20021;-77
2022/04/18 01:31:34;;;;;;;9.45;2.63;;;;;;;7.37;48.61;101791.09;5037732;28;20445;-77
2022/04/18 01:34:02;;;;;;;3.63;2.10;;;;;;;7.40;48.95;101794.28;5062264;28;20140;-77
2022/04/18 01:36:29;;;;;;;4.70;2.97;;;;;;;7.40;47.78;101794.28;5026654;28;20032;-76
2022/04/18 01:38:56;;;;;;;6.18;2.65;;;;;;;7.38;48.00;101788.41;5025939;28;20029;-77
2022/04/18 01:41:22;;;;;;;4.90;2.25;;;;;;;7.39;48.02;101787.44;5055514;28;20115;-77
2022/04/18 01:43:49;;;;;;;3.33;2.08;;;;;;;7.52;47.82;101795.13;5038956;28;20064;-77
2022/04/18 01:46:15;;;;;;;3.72;2.25;;;;;;;7.60;47.54;101790.22;5025588;28;20035;-77
2022/04/18 01:48:42;;;;;;;7.82;2.65;;;;;;;7.53;47.89;101785.63;5044635;28;20086;-76
2022/04/18 01:51:08;;;;;;;4.68;2.80;;;;;;;7.51;47.43;101779.75;5040972;28;20060;-76
2022/04/18 01:53:34;;;;;;;5.78;2.63;;;;;;;7.46;47.38;101772.34;5040459;28;20029;-76
2022/04/18 01:55:59;;;;;;;4.60;2.35;;;;;;;7.53;47.70;101777.88;5043541;28;20378;-76
2022/04/18 01:58:30;;;;;;;6.07;2.50;;;;;;;7.55;47.28;101769.09;5042784;28;20028;-77
2022/04/18 02:00:56;;;;;;;4.68;2.47;;;;;;;7.54;47.95;101766.63;5041694;28;20028;-77
2022/04/18 02:03:22;;;;;;;4.60;2.50;;;;;;;7.56;47.29;101759.59;5044219;28;20036;-76
2022/04/18 02:05:52;;;;;;;4.93;2.42;;;;;;;7.46;47.61;101756.88;5042599;28;20764;-76
2022/04/18 02:08:18;;;;;;;4.82;2.58;;;;;;;7.52;47.38;101760.75;5056486;28;20043;-76
2022/04/18 02:10:44;;;;;;;6.88;2.40;;;;;;;7.49;47.40;101754.03;5043201;28;20489;-76
2022/04/18 02:13:13;;;;;;;4.35;2.03;;;;;;;7.40;48.29;101760.72;5039896;28;20060;-76
2022/04/18 02:15:39;;;;;;;5.82;2.55;;;;;;;7.36;48.18;101755.88;5041207;28;20115;-76
2022/04/18 02:18:05;;;;;;;8.27;2.22;;;;;;;7.34;48.37;101755.97;5042852;28;20426;-76
2022/04/18 02:20:31;;;;;;;7.07;2.50;;;;;;;7.29;48.92;101749.50;5040564;28;20285;-76
2022/04/18 02:22:58;;;;;;;6.35;2.22;;;;;;;7.29;48.64;101740.03;5045339;28;20028;-76
2022/04/18 02:25:24;;;;;;;8.73;2.60;;;;;;;7.16;49.23;101747.84;5060444;28;20033;-76
2022/04/18 02:27:52;;;;;;;4.30;2.45;;;;;;;7.21;49.09;101752.66;5039760;28;20036;-76
2022/04/18 02:30:18;;;;;;;5.05;2.30;;;;;;;7.22;48.95;101744.81;5043050;28;20378;-76
2022/04/18 02:32:50;;;;;;;3.55;2.25;;;;;;;7.18;48.82;101740.00;5021641;28;20060;-76
2022/04/18 02:35:22;;;;;;;4.65;2.40;;;;;;;7.16;49.29;101744.44;5037765;28;20108;-76
2022/04/18 02:37:51;;;;;;;8.27;2.42;;;;;;;7.09;49.38;101740.66;5056317;28;20029;-76
2022/04/18 02:40:22;;;;;;;6.43;2.60;;;;;;;6.95;49.47;101737.31;5037889;28;20083;-77
2022/04/18 02:42:48;;;;;;;3.67;2.30;;;;;;;6.99;49.52;101740.50;5037545;28;20024;-76
2022/04/18 02:45:18;;;;;;;9.13;2.40;;;;;;;6.93;49.37;101734.00;5038148;28;20036;-76
2022/04/18 02:48:09;;;;;;;3.42;2.30;;;;;;;6.87;50.22;101741.34;5051316;28;20119;-76
2022/04/18 02:50:39;;;;;;;4.45;2.55;;;;;;;6.87;50.37;101739.59;5037572;28;20082;-76
2022/04/18 02:53:06;;;;;;;5.20;2.42;;;;;;;6.74;51.28;101739.66;5022698;28;20094;-76
2022/04/18 02:55:43;;;;;;;8.32;2.65;;;;;;;6.66;52.96;101728.22;5040626;28;20105;-76
2022/04/18 02:58:09;;;;;;;5.38;2.33;;;;;;;6.59;53.24;101738.97;5041889;28;20123;-76
2022/04/18 03:00:36;;;;;;;4.45;2.63;;;;;;;6.56;53.58;101738.34;5038477;28;20028;-76
2022/04/18 03:03:01;;;;;;;7.50;2.20;;;;;;;6.54;53.58;101729.91;5038581;28;20443;-76
2022/04/18 03:05:27;;;;;;;4.13;2.00;;;;;;;6.49;53.52;101724.25;5038786;28;20468;-76
2022/04/18 03:07:53;;;;;;;4.43;2.58;;;;;;;6.47;54.39;101723.53;5025932;28;20028;-76
2022/04/18 03:11:02;;;;;;;4.22;2.30;;;;;;;6.40;54.92;101725.69;5040043;28;20032;-76
2022/04/18 03:13:07;;;;;;;7.18;2.95;;;;;;;6.35;54.51;101720.88;5055388;28;20087;-76
2022/04/18 03:15:32;;;;;;;5.00;2.53;;;;;;;6.30;54.11;101722.13;5037819;28;20024;-76
2022/04/18 03:17:58;;;;;;;6.30;2.85;;;;;;;6.27;54.75;101717.97;5020730;28;20032;-76
2022/04/18 03:20:24;;;;;;;5.63;3.05;;;;;;;6.24;55.47;101731.09;5037873;28;20085;-76
2022/04/18 03:22:49;;;;;;;5.88;2.90;;;;;;;6.21;56.01;101731.28;5039447;28;20028;-76
2022/04/18 03:25:25;;;;;;;4.55;2.10;;;;;;;6.19;55.58;101733.16;5038944;28;20056;-76
2022/04/18 03:27:51;;;;;;;5.88;2.72;;;;;;;6.17;55.40;101735.00;5038970;28;20048;-76
2022/04/18 03:30:16;;;;;;;4.55;2.10;;;;;;;6.13;55.21;101731.81;5054057;28;20025;-76
2022/04/18 03:32:46;;;;;;;6.57;2.42;;;;;;;6.17;54.35;101730.66;5039610;28;20449;-76
2022/04/18 03:35:12;;;;;;;6.97;2.70;;;;;;;6.16;53.38;101731.63;5038062;28;20033;-76
2022/04/18 03:40:22;;;;;;;5.63;2.40;;;;;;;6.11;54.58;101730.28;5038913;28;20116;-76
2022/04/18 03:42:48;;;;;;;3.85;2.10;;;;;;;6.09;54.51;101727.81;5037444;28;20024;-76
2022/04/18 03:45:15;;;;;;;4.90;2.30;;;;;;;6.17;53.44;101728.09;5038161;28;20478;-76
2022/04/18 03:47:41;;;;;;;4.53;2.35;;;;;;;6.08;54.36;101733.06;5038077;28;20033;-76
2022/04/18 03:50:07;;;;;;;6.88;2.22;;;;;;;6.04;55.41;101732.44;5022371;28;20089;-76
2022/04/18 03:52:37;;;;;;;3.20;1.98;;;;;;;5.93;55.91;101737.44;5038987;28;20037;-76
2022/04/18 03:55:04;;;;;;;3.20;2.15;;;;;;;5.96;54.63;101729.56;5040417;28;20430;-76
2022/04/18 03:57:34;;;;;;;5.68;2.42;;;;;;;5.95;54.21;101727.88;5037832;28;20603;-76
2022/04/18 04:00:09;;;;;;;4.80;2.42;;;;;;;5.96;53.70;101727.81;5056307;28;20037;-76
2022/04/18 04:02:43;;;;;;;4.25;2.50;;;;;;;5.89;54.05;101730.88;5057301;28;20080;-76
2022/04/18 04:05:11;;;;;;;4.13;2.13;;;;;;;5.84;54.77;101731.19;5043851;28;20212;-76
2022/04/18 04:07:38;;;;;;;4.18;2.33;;;;;;;5.81;54.91;101723.66;5037888;28;20036;-76
2022/04/18 04:10:17;;;;;;;6.05;2.30;;;;;;;5.96;53.88;101722.66;5038553;28;20505;-76
2022/04/18 04:12:43;;;;;;;7.35;2.28;;;;;;;5.89;53.93;101725.72;5021846;28;20040;-76
2022/04/18 04:15:39;;;;;;;4.53;2.55;;;;;;;6.14;51.78;101714.59;5038402;28;20229;-76
2022/04/18 04:18:09;;;;;;;6.20;3.30;;;;;;;6.13;52.02;101716.38;5038504;28;20039;-76
2022/04/18 04:20:34;;;;;;;7.07;2.90;;;;;;;6.15;52.22;101718.84;5039928;28;20028;-76
2022/04/18 04:23:00;;;;;;;4.97;2.60;;;;;;;6.11;52.52;101723.38;5022857;28;20062;-76
2022/04/18 04:25:37;;;;;;;4.18;2.25;;;;;;;6.02;52.49;101721.41;5038425;28;20488;-76
2022/04/18 04:28:05;;;;;;;4.03;2.15;;;;;;;6.02;52.94;101729.16;5037746;28;20119;-76
2022/04/18 04:30:31;;;;;;;5.53;2.55;;;;;;;5.99;53.46;101732.75;5035566;28;20039;-76
2022/04/18 04:33:00;;;;;;;3.97;2.67;;;;;;;6.01;52.69;101730.09;5027681;28;20119;-76
2022/04/18 04:35:26;;;;;;;5.35;2.60;;;;;;;5.88;53.95;101726.63;5038893;28;20028;-76
2022/04/18 04:38:00;;;;;;;4.78;2.35;;;;;;;5.88;53.98;101732.63;5043978;28;20583;-76
2022/04/18 04:40:42;;;;;;;5.60;2.85;;;;;;;5.98;54.40;101728.53;5042178;28;20432;-76
2022/04/18 04:43:10;;;;;;;3.72;2.10;;;;;;;5.94;54.24;101726.25;5025194;28;20375;-76
2022/04/18 04:45:39;;;;;;;6.88;2.58;;;;;;;5.96;53.83;101727.81;5025257;28;20056;-76
2022/04/18 04:48:26;;;;;;;5.53;2.33;;;;;;;5.98;53.83;101723.38;5057154;28;20458;-76
2022/04/18 04:50:56;;;;;;;5.57;2.85;;;;;;;5.94;53.89;101721.09;5042157;28;20054;-76
2022/04/18 04:53:21;;;;;;;4.90;2.28;;;;;;;5.95;53.42;101721.03;5029031;28;20416;-76
2022/04/18 04:55:48;;;;;;;3.88;2.40;;;;;;;5.95;53.19;101720.16;5039885;28;20029;-76
2022/04/18 04:58:14;;;;;;;5.25;2.47;;;;;;;5.95;53.28;101720.16;5043391;28;20382;-76
2022/04/18 05:00:40;;;;;;;6.05;3.10;;;;;;;5.91;53.86;101724.69;5041689;28;20117;-76
2022/04/18 05:03:26;;;;;;;7.28;2.30;;;;;;;5.93;53.57;101727.97;5031034;28;20496;-76
2022/04/18 05:05:52;;;;;;;4.60;2.50;;;;;;;5.83;54.58;101721.81;5042426;28;20029;-76
2022/04/18 05:08:28;;;;;;;7.25;2.72;;;;;;;5.86;55.01;101726.75;5058223;28;20032;-76
2022/04/18 05:10:55;;;;;;;6.32;2.35;;;;;;;5.84;54.85;101720.88;5043367;28;20035;-76
2022/04/18 05:13:28;;;;;;;4.00;2.70;;;;;;;5.88;54.59;101730.03;5028493;28;20028;-76
2022/04/18 05:15:54;;;;;;;5.22;2.45;;;;;;;5.92;54.48;101722.94;5041684;28;20028;-76
2022/04/18 05:18:38;;;;;;;4.15;2.08;;;;;;;6.04;53.67;101727.28;5056850;28;20042;-76
2022/04/18 05:21:04;;;;;;;3.72;2.50;;;;;;;6.06;53.96;101728.00;5046942;28;20032;-76
2022/04/18 05:23:29;;;;;;;4.03;2.30;;;;;;;6.09;53.44;101724.41;5043316;28;20028;-76
2022/04/18 05:25:55;;;;;;;4.57;2.40;;;;;;;6.05;54.17;101726.38;5041140;28;20478;-76
2022/04/18 05:28:21;;;;;;;4.30;2.70;;;;;;;6.16;53.86;101735.91;5048358;28;20039;-76
2022/04/18 05:30:51;;;;;;;6.25;2.35;;;;;;;6.11;54.44;101732.84;5030658;28;20319;-76
2022/04/18 05:33:21;;;;;;;8.32;2.53;;;;;;;6.23;53.56;101737.16;5046100;28;20552;-76
2022/04/18 05:36:05;;;;;;;4.18;2.35;;;;;;;6.28;54.16;101736.84;5048799;28;20044;-76
2022/04/18 05:38:34;;;;;;;5.65;3.00;;;;;;;6.41;53.47;101738.47;5046824;28;20104;-76
2022/04/18 05:41:10;;;;;;;6.20;2.53;;;;;;;6.47;53.16;101749.28;5063403;28;20032;-76
2022/04/18 05:43:37;;;;;;;5.40;2.60;;;;;;;6.71;52.54;101736.47;5044765;28;20055;-76
2022/04/18 05:46:03;;;;;;;3.53;2.35;;;;;;;6.79;51.96;101740.13;5041805;28;20493;-77
2022/04/18 05:48:28;;;;;;;4.35;2.60;;;;;;;6.88;51.30;101732.69;5043202;28;20028;-76
2022/04/18 05:50:56;;;;;;;4.63;2.65;;;;;;;7.02;51.41;101733.31;5046967;28;20074;-76
2022/04/18 05:53:26;;;;;;;5.00;2.70;;;;;;;7.14;50.87;101741.97;5043604;28;20055;-76
2022/04/18 05:56:04;;;;;;;6.20;2.28;;;;;;;7.14;50.86;101736.81;5061724;28;20067;-76
2022/04/18 05:58:41;;;;;;;5.57;2.70;;;;;;;7.30;50.52;101748.59;5040634;28;20060;-74
2022/04/18 06:01:15;;;;;;;7.40;3.20;;;;;;;7.69;49.20;101752.59;5044401;28;20629;-77
2022/04/18 06:03:41;;;;;;;5.28;2.45;;;;;;;7.92;48.45;101742.31;5061039;28;20288;-76
2022/04/18 06:06:07;;;;;;;5.47;2.20;;;;;;;8.11;48.65;101744.31;5026792;28;20069;-77
2022/04/18 06:08:33;;;;;;;5.50;2.40;;;;;;;7.85;48.46;101741.09;5025039;28;20025;-76
2022/04/18 06:11:07;;;;;;;5.50;2.40;;;;;;;7.83;49.10;101748.16;5044003;28;20358;-76
2022/04/18 06:13:44;;;;;;;4.13;2.60;;;;;;;7.73;49.25;101748.03;5041602;28;20028;-77
2022/04/18 06:16:10;;;;;;;5.18;2.88;;;;;;;7.69;49.20;101741.44;5041082;28;20400;-76
2022/04/18 06:18:37;;;;;;;5.38;2.67;;;;;;;7.67;50.00;101751.06;5043003;28;20561;-76
2022/04/18 06:21:06;;;;;;;4.78;2.58;;;;;;;7.60;49.82;101748.91;5046393;28;20090;-76
2022/04/18 06:23:33;;;;;;;6.00;2.50;;;;;;;7.76;50.58;101753.78;5063283;28;20058;-76
2022/04/18 06:26:17;;;;;;;8.00;2.60;;;;;;;7.77;50.82;101747.66;5060257;28;20054;-77
2022/04/18 06:28:43;;;;;;;6.97;2.67;;;;;;;7.85;49.80;101752.25;5039521;28;20085;-77
2022/04/18 06:31:10;;;;;;;6.55;3.05;;;;;;;7.83;50.50;101746.38;5060836;28;20068;-76
2022/04/18 06:33:41;;;;;;;7.10;2.92;;;;;;;8.00;49.77;101750.28;5028770;28;20040;-75
2022/04/18 06:36:07;;;;;;;6.47;2.58;;;;;;;8.15;49.75;101753.47;5060338;28;20039;-75
2022/04/18 06:38:39;;;;;;;5.70;2.60;;;;;;;8.15;50.03;101754.28;5024362;28;20031;-77
2022/04/18 06:41:10;;;;;;;5.45;2.78;;;;;;;8.37;49.87;101748.28;5026657;28;20063;-77
2022/04/18 06:43:36;;;;;;;4.55;2.20;;;;;;;8.41;49.64;101753.25;5047043;28;20020;-77
2022/04/18 06:46:07;;;;;;;6.25;3.03;;;;;;;8.55;48.97;101753.84;5041227;28;20066;-77
2022/04/18 06:48:32;;;;;;;5.53;2.33;;;;;;;8.75;48.26;101749.69;5058802;28;20305;-76
2022/04/18 06:51:27;;;;;;;5.10;2.50;;;;;;;8.95;48.51;101748.13;4987241;28;20112;-76
2022/04/18 06:54:16;;;;;;;6.35;3.13;;;;;;;9.26;48.30;101750.81;5052223;28;20043;-77
2022/04/18 06:57:04;;;;;;;9.45;2.90;;;;;;;9.66;47.38;101750.19;5040384;28;20157;-77
2022/04/18 06:59:36;;;;;;;7.05;2.50;;;;;;;10.17;45.76;101740.75;5055893;28;20066;-76
2022/04/18 07:02:02;;;;;;;5.28;2.45;;;;;;;10.59;44.52;101745.00;5043152;28;20615;-75
2022/04/18 07:04:27;;;;;;;7.70;2.42;;;;;;;11.14;43.29;101742.75;5039731;28;20024;-76
2022/04/18 07:06:53;;;;;;;5.03;2.55;;;;;;;11.78;42.58;101740.50;5042883;28;20016;-76
2022/04/18 07:09:21;;;;;;;4.15;2.10;;;;;;;12.58;40.93;101733.03;5039782;28;20444;-76
2022/04/18 07:11:58;;;;;;;6.28;2.60;;;;;;;13.04;39.35;101736.44;5037661;28;20040;-76
2022/04/18 07:14:25;;;;;;;5.65;2.20;;;;;;;13.33;39.38;101738.81;5037644;28;20519;-76
2022/04/18 07:16:53;;;;;;;6.03;2.60;;;;;;;12.97;38.94;101731.00;5040512;28;20032;-76
2022/04/18 07:19:23;;;;;;;4.47;2.15;;;;;;;13.62;38.55;101732.50;5044396;28;20063;-76
2022/04/18 07:21:50;;;;;;;5.78;1.98;;;;;;;13.32;38.61;101737.19;5027407;28;20036;-77
2022/04/18 07:24:17;;;;;;;4.40;2.35;;;;;;;14.06;37.52;101732.41;5046180;28;20166;-77
2022/04/18 07:26:45;;;;;;;4.38;2.10;;;;;;;14.20;37.26;101734.44;5028723;28;20028;-77
2022/04/18 07:29:10;;;;;;;5.75;2.42;;;;;;;14.27;36.92;101733.81;5038901;28;20085;-76
2022/04/18 07:31:38;;;;;;;4.22;1.90;;;;;;;14.26;37.30;101735.59;5039906;28;20451;-77
2022/04/18 07:34:04;;;;;;;4.68;2.28;;;;;;;14.15;37.34;101735.88;5028576;28;20025;-76
2022/04/18 07:36:29;;;;;;;3.28;2.20;;;;;;;14.07;37.14;101739.28;5041256;28;20563;-74
2022/04/18 07:38:56;;;;;;;3.20;2.10;;;;;;;14.36;37.46;101730.25;5042378;28;20028;-77
2022/04/18 07:41:28;;;;;;;4.07;2.20;;;;;;;14.30;37.70;101731.69;5043252;28;20025;-77
2022/04/18 07:43:57;;;;;;;7.57;2.58;;;;;;;14.43;36.70;101733.88;5027620;28;20535;-76
2022/04/18 07:46:23;;;;;;;5.85;2.83;;;;;;;14.25;37.59;101740.97;5038249;28;20528;-77
2022/04/18 07:48:51;;;;;;;4.10;1.88;;;;;;;14.73;36.54;101742.09;5037010;28;20342;-77
2022/04/18 07:54:17;;;;;;;4.82;2.53;;;;;;;15.54;35.73;101736.09;5057836;28;20106;-76
2022/04/18 07:56:44;;;;;;;4.53;2.17;;;;;;;15.81;34.67;101735.91;5040244;28;20109;-78
2022/04/18 07:59:10;;;;;;;4.32;2.10;;;;;;;15.96;34.92;101737.66;5023190;28;20283;-77
2022/04/18 08:01:38;;;;;;;5.35;2.40;;;;;;;15.91;34.94;101733.91;5039284;28;20119;-77
2022/04/18 08:04:05;;;;;;;4.28;2.30;;;;;;;15.82;34.36;101734.91;5021940;28;20086;-77
2022/04/18 08:06:33;;;;;;;4.65;2.28;;;;;;;15.88;34.89;101735.06;5023316;28;20100;-77
2022/04/18 08:09:11;;;;;;;6.70;2.95;;;;;;;16.23;34.68;101734.78;5035108;28;20028;-77
2022/04/18 08:11:36;;;;;;;4.88;2.72;;;;;;;16.67;34.17;101727.16;5052165;28;20036;-77
2022/04/18 08:14:02;;;;;;;5.25;2.15;;;;;;;16.06;34.70;101728.78;5038356;28;20032;-77
2022/04/18 08:16:31;;;;;;;5.07;2.20;;;;;;;16.75;34.45;101723.69;5036845;28;20126;-77
2022/04/18 08:19:03;;;;;;;3.20;2.30;;;;;;;17.51;33.07;101721.09;5023744;28;20390;-77
2022/04/18 08:21:28;;;;;;;6.18;2.17;;;;;;;17.77;33.40;101720.66;5040971;28;20079;-77
2022/04/18 08:23:54;;;;;;;3.60;2.28;;;;;;;17.46;32.77;101710.31;5038406;28;20036;-77
2022/04/18 08:26:37;;;;;;;6.28;2.33;;;;;;;17.58;33.30;101708.09;5042932;28;20089;-77
2022/04/18 08:29:09;;;;;;;4.15;2.10;;;;;;;18.34;32.01;101711.28;5038742;28;20028;-77
2022/04/18 08:31:55;;;;;;;3.83;2.42;;;;;;;18.59;31.73;101695.19;5057297;28;20048;-77
2022/04/18 08:34:31;;;;;;;5.22;2.10;;;;;;;18.96;31.86;101694.13;5043058;28;20245;-77
2022/04/18 08:36:56;;;;;;;5.90;2.60;;;;;;;18.86;30.95;101702.34;5058942;28;20033;-78
2022/04/18 08:39:26;;;;;;;6.10;2.47;;;;;;;18.45;30.93;101694.25;5055530;28;20032;-77
2022/04/18 08:42:04;;;;;;;4.22;2.50;;;;;;;17.99;32.24;101697.97;5042332;28;20033;-77
2022/04/18 08:44:37;;;;;;;3.85;2.22;;;;;;;18.67;32.63;101702.94;5027477;28;20020;-78
2022/04/18 08:47:04;;;;;;;4.10;2.50;;;;;;;18.51;31.20;101700.56;5036338;28;20031;-77
2022/04/18 08:55:20;;;;;;;4.07;2.03;;;;;;;18.50;30.30;101694.50;5053707;28;20072;-77
2022/04/18 08:57:46;;;;;;;5.10;2.47;;;;;;;18.51;31.61;101693.47;5036420;28;20033;-78
2022/04/18 09:00:13;;;;;;;6.35;2.40;;;;;;;18.69;31.95;101693.06;5024582;28;20448;-76
2022/04/18 09:02:43;;;;;;;3.55;2.35;;;;;;;18.73;31.93;101681.19;5034094;28;20473;-77
2022/04/18 09:05:18;;;;;;;5.05;2.30;;;;;;;18.66;31.39;101682.91;5058096;28;20029;-77
2022/04/18 09:07:55;;;;;;;4.57;2.25;;;;;;;18.58;31.86;101665.47;5019838;28;20559;-77
2022/04/18 09:10:23;;;;;;;7.25;2.78;;;;;;;18.51;31.86;101679.56;5038864;28;20044;-78
2022/04/18 09:12:51;;;;;;;5.97;2.88;;;;;;;18.65;31.70;101679.50;5036545;28;20581;-77
2022/04/18 09:15:37;;;;;;;7.07;2.47;;;;;;;18.75;32.16;101673.09;5040149;28;20740;-78
2022/04/18 09:18:18;;;;;;;7.63;2.72;;;;;;;18.82;31.82;101669.56;5020623;28;20055;-78
2022/04/18 09:21:10;;;;;;;3.90;2.47;;;;;;;19.29;31.84;101669.06;5040560;28;20042;-77
2022/04/18 09:23:41;;;;;;;4.05;2.30;;;;;;;19.13;31.45;101670.19;5039353;28;20091;-77
2022/04/18 09:26:27;;;;;;;4.40;2.58;;;;;;;19.42;31.70;101677.88;5052638;28;20044;-78
2022/04/18 09:29:04;;;;;;;5.78;2.53;;;;;;;19.22;30.65;101675.13;5043117;28;20061;-78
2022/04/18 09:31:38;;;;;;;8.02;2.88;;;;;;;18.93;31.59;101670.03;5041072;28;20492;-78
2022/04/18 09:34:07;;;;;;;4.35;2.45;;;;;;;19.01;31.19;101667.28;5031909;28;20060;-78
2022/04/18 09:36:32;;;;;;;7.55;3.08;;;;;;;19.09;30.89;101659.25;5041640;28;20036;-77
2022/04/18 09:38:58;;;;;;;4.45;2.42;;;;;;;19.62;31.44;101659.56;5042447;28;20097;-77
2022/04/18 09:41:31;;;;;;;7.13;2.75;;;;;;;19.57;30.16;101654.09;5047346;28;20051;-78
2022/04/18 09:44:06;;;;;;;6.95;3.38;;;;;;;19.34;30.79;101659.59;5042756;28;20177;-78
2022/04/18 09:46:38;;;;;;;;;;;;;;;19.71;30.76;101654.16;5043931;28;20033;-78
2022/04/18 09:49:39;;;;;;;5.82;2.75;;;;;;;19.66;30.64;101657.34;5048853;28;19912;-78
2022/04/18 09:52:11;;;;;;;6.47;3.10;;;;;;;19.43;32.60;101649.75;5029619;28;20215;-77
2022/04/18 09:55:05;;;;;;;5.18;2.60;;;;;;;19.69;31.23;101643.81;5043474;28;20033;-78
2022/04/18 09:57:30;;;;;;;4.90;2.22;;;;;;;19.12;30.48;101642.28;5058586;28;20129;-79
2022/04/18 09:59:58;;;;;;;5.63;2.40;;;;;;;18.96;31.69;101646.03;5027814;28;20272;-78
2022/04/18 10:02:24;;;;;;;8.57;2.55;;;;;;;19.44;31.86;101638.25;5044895;28;20443;-77
2022/04/18 10:04:52;;;;;;;4.15;2.58;;;;;;;19.87;30.82;101635.41;5026702;28;20397;-78
2022/04/18 10:07:18;;;;;;;6.93;2.92;;;;;;;19.72;30.00;101629.44;5061561;28;20064;-78
2022/04/18 10:09:43;;;;;;;6.05;2.70;;;;;;;19.87;30.84;101634.59;5044704;28;20477;-79
2022/04/18 10:12:13;;;;;;;6.10;2.80;;;;;;;19.76;29.90;101631.53;5044424;28;20037;-78
2022/04/18 10:14:41;;;;;;;4.15;2.17;;;;;;;19.31;30.78;101630.25;5062247;28;20165;-79
2022/04/18 10:17:08;;;;;;;8.18;3.03;;;;;;;19.59;30.20;101623.13;5064101;28;20033;-78
2022/04/18 10:19:48;;;;;;;4.13;2.58;;;;;;;19.40;30.42;101624.66;5045457;28;20095;-79
2022/04/18 10:22:42;;;;;;;4.38;2.50;;;;;;;19.34;27.36;101614.91;5045426;28;20493;-78
2022/04/18 10:25:27;;;;;;;5.93;2.30;;;;;;;19.38;28.43;101617.97;5046968;28;20035;-78
2022/04/18 10:28:10;;;;;;;4.95;2.50;;;;;;;19.58;28.89;101616.25;5023902;28;20400;-78
2022/04/18 10:30:44;;;;;;;3.25;1.92;;;;;;;19.97;26.31;101620.06;5039449;28;20029;-78
2022/04/18 10:33:12;;;;;;;4.35;2.40;;;;;;;19.84;26.91;101614.75;5037835;28;20043;-77
2022/04/18 10:35:46;;;;;;;4.30;2.40;;;;;;;19.85;27.15;101611.09;5039591;28;20029;-78
2022/04/18 10:38:12;;;;;;;3.25;1.77;;;;;;;19.64;25.93;101604.94;5025448;28;20044;-77
2022/04/18 10:40:40;;;;;;;3.03;1.90;;;;;;;19.77;27.27;101608.66;5058832;28;20039;-77
2022/04/18 10:43:10;;;;;;;2.97;2.00;;;;;;;19.95;27.66;101606.28;5024902;28;20079;-77
2022/04/18 10:45:36;;;;;;;3.95;2.10;;;;;;;20.14;28.16;101594.19;5040681;28;20481;-77
2022/04/18 10:48:04;;;;;;;3.22;1.98;;;;;;;20.13;27.60;101595.19;5056197;28;20076;-79
2022/04/18 10:50:47;;;;;;;4.72;2.17;;;;;;;20.14;28.03;101596.00;5024378;28;20397;-77
2022/04/18 10:53:24;;;;;;;4.78;2.55;;;;;;;20.05;25.61;101597.22;5040039;28;20036;-78
2022/04/18 10:55:56;;;;;;;6.18;2.25;;;;;;;20.00;27.28;101590.72;5025507;28;20056;-77
2022/04/18 10:58:24;;;;;;;5.03;2.00;;;;;;;20.00;26.35;101595.16;5041101;28;20041;-78
2022/04/18 11:00:52;;;;;;;6.53;2.15;;;;;;;19.96;25.06;101589.47;5022948;28;20064;-79
2022/04/18 11:03:43;;;;;;;4.30;1.88;;;;;;;19.85;24.86;101584.78;5027734;28;20021;-78
2022/04/18 11:06:18;;;;;;;2.80;1.88;;;;;;;19.74;23.70;101588.81;5061724;28;20437;-79
2022/04/18 11:09:14;;;;;;;3.75;2.20;;;;;;;19.83;26.39;101581.53;5039488;28;20075;-77
2022/04/18 11:11:44;;;;;;;5.32;2.55;;;;;;;19.76;26.72;101586.81;5034239;28;20048;-79
2022/04/18 11:14:15;;;;;;;6.05;2.20;;;;;;;19.75;27.20;101587.00;5026628;28;20033;-78
2022/04/18 11:16:44;;;;;;;3.75;2.10;;;;;;;19.96;27.96;101581.56;5057492;28;20032;-77
2022/04/18 11:19:20;;;;;;;5.28;2.45;;;;;;;20.20;26.77;101579.41;5040675;28;20041;-78
2022/04/18 11:21:59;;;;;;;2.70;1.80;;;;;;;20.04;25.10;101583.22;5040383;28;20044;-77
2022/04/18 11:24:36;;;;;;;4.32;2.10;;;;;;;20.21;25.92;101576.56;5060223;28;20040;-78
2022/04/18 11:27:05;;;;;;;5.03;2.65;;;;;;;19.77;26.29;101569.19;5036686;28;20067;-79
2022/04/18 11:29:33;;;;;;;3.67;1.98;;;;;;;20.10;24.36;101566.63;5039757;28;20103;-78
2022/04/18 11:31:59;;;;;;;3.72;2.08;;;;;;;20.22;24.74;101577.38;5039305;28;20041;-78
2022/04/18 11:34:27;;;;;;;4.70;1.90;;;;;;;20.21;26.22;101563.41;5046165;28;20059;-79
2022/04/18 11:36:58;;;;;;;4.35;1.88;;;;;;;20.33;26.69;101563.63;5040616;28;20245;-79
2022/04/18 11:39:24;;;;;;;2.97;2.20;;;;;;;20.47;25.48;101559.16;5021737;28;20041;-78
2022/04/18 11:42:02;;;;;;;2.92;2.00;;;;;;;20.65;24.95;101560.41;5039840;28;20086;-79
2022/04/18 11:44:40;;;;;;;4.28;2.10;;;;;;;20.66;25.91;101546.19;5025969;28;20026;-79
2022/04/18 11:47:13;;;;;;;2.95;2.10;;;;;;;20.12;26.62;101554.09;5026265;28;20055;-79
2022/04/18 11:49:40;;;;;;;4.80;2.05;;;;;;;20.29;26.79;101549.22;5044762;28;20118;-79
2022/04/18 11:52:16;;;;;;;3.70;1.98;;;;;;;20.41;26.03;101547.59;5041474;28;20044;-79
2022/04/18 11:55:03;;;;;;;4.80;1.90;;;;;;;20.36;26.80;101547.41;5036941;28;20033;-79
2022/04/18 11:57:30;;;;;;;3.22;1.85;;;;;;;20.30;25.48;101539.50;5023478;28;20134;-78
2022/04/18 11:59:57;;;;;;;3.63;1.95;;;;;;;20.26;26.86;101538.28;5040363;28;20071;-78